Time;durP1;ratioP1;P1;durP2;ratioP2;P2;SDS_P1;SDS_P2;PMS_P1;PMS_P2;Temp;Humidity;BMP_temperature;BMP_pressure;BME280_temperature;BME280_humidity;BME280_pressure;Samples;Min_cycle;Max_cycle;Signal;HPM_P1;HPM_P2
2022/08/19 00:01:36;;;;;;;10.23;9.13;;;;;;;21.77;100.00;97614.98;1706082;81;28238;-86
2022/08/19 00:04:05;;;;;;;13.13;9.88;;;;;;;21.77;100.00;97610.98;1677187;82;28153;-86
2022/08/19 00:06:35;;;;;;;12.15;8.65;;;;;;;21.76;100.00;97610.70;1682711;81;28262;-86
2022/08/19 00:09:03;;;;;;;13.00;9.48;;;;;;;21.76;100.00;97609.88;1687887;83;28225;-86
2022/08/19 00:11:29;;;;;;;10.55;8.70;;;;;;;21.78;100.00;97608.64;1702477;81;28118;-84
2022/08/19 00:13:56;;;;;;;11.33;9.30;;;;;;;21.94;100.00;97604.81;1709063;81;28186;-88
2022/08/19 00:16:25;;;;;;;14.28;8.70;;;;;;;22.04;100.00;97606.11;1705178;81;28099;-86
2022/08/19 00:18:51;;;;;;;11.65;10.08;;;;;;;22.09;100.00;97600.20;1696687;82;28097;-87
2022/08/19 00:21:17;;;;;;;12.40;8.88;;;;;;;22.06;100.00;97597.92;1706869;82;28228;-86
2022/08/19 00:23:44;;;;;;;12.65;8.93;;;;;;;22.05;100.00;97588.28;1701344;82;28130;-84
2022/08/19 00:26:11;;;;;;;11.45;9.40;;;;;;;22.01;100.00;97575.88;1715915;81;28294;-88
2022/08/19 00:28:37;;;;;;;12.18;9.38;;;;;;;22.17;100.00;97584.02;1708452;81;28097;-85
2022/08/19 00:31:06;;;;;;;11.10;9.35;;;;;;;22.23;100.00;97582.39;1711063;81;28120;-86
2022/08/19 00:33:33;;;;;;;12.47;9.25;;;;;;;22.19;100.00;97577.16;1725227;82;28096;-86
2022/08/19 00:36:01;;;;;;;31.17;18.02;;;;;;;22.23;100.00;97571.23;1673260;84;28243;-85
2022/08/19 00:38:27;;;;;;;18.98;12.73;;;;;;;22.24;100.00;97572.05;1685481;81;28701;-89
2022/08/19 00:40:54;;;;;;;15.03;12.05;;;;;;;22.23;100.00;97569.89;1703434;82;28143;-86
2022/08/19 00:43:23;;;;;;;15.28;11.10;;;;;;;22.29;100.00;97571.75;1715397;81;28159;-89
2022/08/19 00:45:51;;;;;;;14.98;10.70;;;;;;;22.30;100.00;97560.58;1695090;82;28224;-86
2022/08/19 00:48:20;;;;;;;12.50;10.10;;;;;;;22.29;100.00;97562.94;1708810;82;28163;-86
2022/08/19 00:50:48;;;;;;;12.70;9.50;;;;;;;22.33;100.00;97560.98;1692391;82;28114;-86
2022/08/19 00:53:18;;;;;;;11.57;9.15;;;;;;;22.37;100.00;97560.89;1699457;81;28258;-86
2022/08/19 00:55:51;;;;;;;12.68;9.75;;;;;;;22.37;100.00;97556.06;1707400;81;28117;-86
2022/08/19 00:58:20;;;;;;;12.88;9.23;;;;;;;22.34;100.00;97561.81;1712328;81;28251;-87
2022/08/19 01:00:48;;;;;;;13.30;9.20;;;;;;;22.34;100.00;97560.48;1675835;82;28101;-86
2022/08/19 01:03:18;;;;;;;11.40;8.78;;;;;;;22.24;100.00;97558.72;1678387;82;28166;-89
2022/08/19 01:05:45;;;;;;;9.05;7.83;;;;;;;22.09;100.00;97560.23;1690890;81;28035;-88
2022/08/19 01:08:14;;;;;;;11.38;8.68;;;;;;;22.02;100.00;97563.38;1695260;82;28079;-88
2022/08/19 01:10:46;;;;;;;11.83;8.78;;;;;;;22.00;100.00;97553.42;1707107;81;28086;-88
2022/08/19 01:13:15;;;;;;;11.12;8.35;;;;;;;22.08;100.00;97554.08;1697283;81;28056;-86
2022/08/19 01:15:47;;;;;;;12.82;8.58;;;;;;;22.11;100.00;97541.67;1712410;82;28157;-86
2022/08/19 01:18:16;;;;;;;11.22;8.40;;;;;;;22.21;100.00;97547.11;1696305;82;28266;-84
2022/08/19 01:20:43;;;;;;;12.03;8.20;;;;;;;22.26;100.00;97546.81;1716967;80;28241;-87
2022/08/19 01:23:10;;;;;;;10.03;8.43;;;;;;;22.24;100.00;97546.22;1688165;82;28113;-84
2022/08/19 01:25:45;;;;;;;10.15;7.90;;;;;;;22.26;100.00;97543.33;1681264;81;28141;-86
2022/08/19 01:28:18;;;;;;;;;;;;;;;22.19;100.00;97543.84;1703609;82;28248;-87
2022/08/19 01:30:45;;;;;;;9.80;7.93;;;;;;;22.20;100.00;97540.17;1699804;82;20294;-86
2022/08/19 01:33:12;;;;;;;;;;;;;;;22.22;100.00;97538.92;1681694;83;28187;-88
2022/08/19 01:35:41;;;;;;;;;;;;;;;22.23;100.00;97543.75;1710367;81;21967;-86
2022/08/19 01:38:10;;;;;;;;;;;;;;;22.21;100.00;97539.12;1712376;82;26073;-86
2022/08/19 01:40:39;;;;;;;;;;;;;;;22.20;100.00;97536.17;1710036;81;24800;-87
2022/08/19 01:43:05;;;;;;;;;;;;;;;22.20;100.00;97530.84;1703855;81;20221;-86
2022/08/19 01:45:32;;;;;;;;;;;;;;;22.21;100.00;97533.78;1713294;81;25691;-85
2022/08/19 01:47:59;;;;;;;;;;;;;;;22.23;100.00;97538.41;1700903;81;22028;-88
2022/08/19 01:50:25;;;;;;;;;;;;;;;22.29;100.00;97545.09;1703835;81;26097;-84
2022/08/19 01:52:51;;;;;;;;;;;;;;;22.32;100.00;97545.19;1714588;82;24679;-86
2022/08/19 01:55:22;;;;;;;;;;;;;;;22.31;100.00;97547.57;1728125;81;20274;-85
2022/08/19 01:57:49;;;;;;;;;;;;;;;22.28;100.00;97546.11;1705098;82;24995;-84
2022/08/19 02:00:17;;;;;;;;;;;;;;;22.22;100.00;97541.59;1707391;81;22061;-88
2022/08/19 02:02:43;;;;;;;;;;;;;;;22.15;100.00;97530.63;1701530;82;26016;-84
2022/08/19 02:05:10;;;;;;;;;;;;;;;21.92;100.00;97535.77;1713196;81;20319;-86
2022/08/19 02:07:38;;;;;;;;;;;;;;;21.77;100.00;97536.41;1709138;81;20269;-88
2022/08/19 02:10:13;;;;;;;10.70;7.80;;;;;;;21.66;100.00;97528.98;1706193;81;25929;-88
2022/08/19 02:12:40;;;;;;;9.70;8.10;;;;;;;21.65;100.00;97534.02;1664788;84;22846;-84
2022/08/19 02:15:07;;;;;;;8.83;7.92;;;;;;;21.64;100.00;97532.37;1654164;83;28065;-86
2022/08/19 02:17:40;;;;;;;10.20;7.80;;;;;;;21.62;100.00;97535.73;1704154;81;28130;-86
2022/08/19 02:20:07;;;;;;;9.08;8.08;;;;;;;21.58;100.00;97531.33;1695335;82;28112;-86
2022/08/19 02:22:33;;;;;;;11.50;8.50;;;;;;;21.60;100.00;97527.94;1663672;84;28166;-86
2022/08/19 02:25:00;;;;;;;12.03;8.43;;;;;;;21.60;100.00;97530.60;1700720;81;28139;-88
2022/08/19 02:27:27;;;;;;;10.98;7.55;;;;;;;21.57;100.00;97524.36;1691305;81;28206;-87
2022/08/19 02:29:53;;;;;;;8.90;7.70;;;;;;;21.49;100.00;97526.38;1703404;82;28096;-85
2022/08/19 02:32:19;;;;;;;10.88;8.20;;;;;;;21.49;100.00;97523.72;1699871;81;28085;-88
2022/08/19 02:34:47;;;;;;;9.63;8.33;;;;;;;21.56;100.00;97524.03;1699366;81;28090;-88
2022/08/19 02:39:59;;;;;;;11.50;7.42;;;;;;;21.70;100.00;97532.41;1710014;81;28266;-86
2022/08/19 02:42:28;;;;;;;8.93;6.17;;;;;;;21.69;100.00;97521.95;1693731;81;28125;-88
2022/08/19 02:44:56;;;;;;;8.85;6.67;;;;;;;21.69;100.00;97519.28;1700252;81;28262;-84
2022/08/19 02:47:22;;;;;;;7.85;7.05;;;;;;;21.74;100.00;97518.68;1696026;81;28116;-86
2022/08/19 02:49:49;;;;;;;9.20;7.12;;;;;;;21.77;100.00;97517.76;1696516;82;28106;-86
2022/08/19 02:52:18;;;;;;;9.58;7.22;;;;;;;21.78;100.00;97519.41;1698130;81;28044;-88
2022/08/19 02:54:45;;;;;;;9.28;7.67;;;;;;;21.70;100.00;97516.94;1685123;82;28207;-86
2022/08/19 02:57:11;;;;;;;9.83;7.72;;;;;;;21.59;100.00;97505.52;1695281;82;28182;-87
2022/08/19 02:59:39;;;;;;;9.85;7.22;;;;;;;21.49;100.00;97498.42;1689498;81;28188;-87
2022/08/19 03:02:06;;;;;;;12.00;6.70;;;;;;;21.37;100.00;97492.02;1711883;81;28152;-84
2022/08/19 03:04:32;;;;;;;7.70;6.55;;;;;;;21.31;100.00;97491.47;1705051;82;28124;-87
2022/08/19 03:06:58;;;;;;;9.20;6.78;;;;;;;21.34;100.00;97495.05;1706110;81;28095;-86
2022/08/19 03:09:24;;;;;;;10.23;6.83;;;;;;;21.32;100.00;97501.11;1703203;81;28067;-86
2022/08/19 03:11:51;;;;;;;9.88;7.22;;;;;;;21.39;100.00;97505.92;1710273;81;28118;-86
2022/08/19 03:14:17;;;;;;;10.28;8.00;;;;;;;21.39;100.00;97516.07;1708764;81;28262;-85
2022/08/19 03:16:47;;;;;;;10.18;8.53;;;;;;;21.38;100.00;97518.95;1700878;81;28084;-86
2022/08/19 03:19:15;;;;;;;10.85;8.38;;;;;;;21.36;100.00;97524.97;1693781;82;28122;-85
2022/08/19 03:21:44;;;;;;;10.95;8.08;;;;;;;21.27;100.00;97526.45;1703926;81;28286;-87
2022/08/19 03:24:11;;;;;;;9.38;8.28;;;;;;;21.25;100.00;97531.67;1709260;81;28117;-85
2022/08/19 03:26:47;;;;;;;10.78;8.68;;;;;;;21.13;100.00;97522.55;1703910;81;28117;-87
2022/08/19 03:29:20;;;;;;;10.00;8.80;;;;;;;21.02;100.00;97528.42;1690436;81;28178;-84
2022/08/19 03:31:50;;;;;;;9.23;7.83;;;;;;;20.94;100.00;97534.73;1697161;82;28068;-87
2022/08/19 03:34:22;;;;;;;12.95;8.60;;;;;;;20.94;100.00;97532.07;1707833;81;28140;-84
2022/08/19 03:36:48;;;;;;;12.33;8.10;;;;;;;21.05;100.00;97542.68;1713244;81;28586;-88
2022/08/19 03:39:15;;;;;;;13.55;8.40;;;;;;;21.12;100.00;97537.70;1702109;81;28132;-87
2022/08/19 03:41:44;;;;;;;10.78;8.63;;;;;;;21.14;100.00;97548.15;1659067;83;28025;-85
2022/08/19 03:44:11;;;;;;;11.65;8.45;;;;;;;21.24;100.00;97547.32;1686135;82;28260;-86
2022/08/19 03:46:37;;;;;;;11.05;7.92;;;;;;;21.33;100.00;97546.67;1684674;82;28115;-86
2022/08/19 03:49:08;;;;;;;9.80;8.35;;;;;;;21.41;100.00;97546.49;1685704;82;28082;-86
2022/08/19 03:51:38;;;;;;;10.03;8.53;;;;;;;21.49;100.00;97548.47;1686088;82;28094;-84
2022/08/19 03:54:08;;;;;;;10.67;8.40;;;;;;;21.44;100.00;97547.45;1693165;81;28453;-86
2022/08/19 03:56:36;;;;;;;13.22;9.15;;;;;;;21.38;100.00;97553.55;1714304;81;28088;-85
2022/08/19 03:59:04;;;;;;;10.98;7.85;;;;;;;21.40;100.00;97546.17;1713317;82;28100;-85
2022/08/19 04:01:30;;;;;;;10.48;8.45;;;;;;;21.43;100.00;97548.46;1715687;82;28088;-86
2022/08/19 04:03:58;;;;;;;9.83;8.08;;;;;;;21.46;100.00;97550.72;1706201;81;28139;-86
2022/08/19 04:06:30;;;;;;;11.50;8.18;;;;;;;21.50;100.00;97571.42;1703461;82;28100;-86
2022/08/19 04:09:19;;;;;;;9.03;7.60;;;;;;;21.53;100.00;97578.20;1669040;83;28014;-86
2022/08/19 04:11:53;;;;;;;7.70;6.72;;;;;;;21.56;100.00;97578.63;1693135;81;28237;-86
2022/08/19 04:14:29;;;;;;;8.15;5.92;;;;;;;21.64;100.00;97581.64;1695781;82;28096;-88
2022/08/19 04:17:00;;;;;;;7.15;6.42;;;;;;;21.66;100.00;97576.92;1662406;83;28122;-86
2022/08/19 04:19:26;;;;;;;7.03;6.33;;;;;;;21.69;100.00;97582.69;1682325;83;28152;-86
2022/08/19 04:21:54;;;;;;;8.05;6.10;;;;;;;21.79;100.00;97582.83;1626204;84;28267;-86
2022/08/19 04:24:21;;;;;;;10.20;6.00;;;;;;;21.81;100.00;97580.29;1669342;84;28119;-88
2022/08/19 04:26:50;;;;;;;7.47;5.58;;;;;;;21.85;100.00;97576.20;1627292;85;28111;-88
2022/08/19 04:29:24;;;;;;;7.70;6.00;;;;;;;21.91;100.00;97579.41;1650409;84;28539;-86
2022/08/19 04:31:53;;;;;;;8.73;5.60;;;;;;;21.98;100.00;97584.26;1667951;83;28483;-85
2022/08/19 04:34:22;;;;;;;7.50;5.70;;;;;;;22.10;100.00;97587.99;1672057;83;28063;-87
2022/08/19 04:36:50;;;;;;;6.15;5.25;;;;;;;22.16;100.00;97582.88;1651834;84;28166;-86
2022/08/19 04:39:20;;;;;;;7.55;5.75;;;;;;;22.17;100.00;97585.36;1633787;84;28022;-85
2022/08/19 04:44:35;;;;;;;7.30;6.15;;;;;;;22.30;100.00;97593.91;1686360;81;28107;-86
2022/08/19 04:47:05;;;;;;;9.13;6.60;;;;;;;22.34;100.00;97585.80;1687086;82;28107;-86
2022/08/19 04:49:31;;;;;;;7.60;5.55;;;;;;;22.39;100.00;97586.84;1703608;81;28093;-85
2022/08/19 04:51:58;;;;;;;6.90;5.65;;;;;;;22.50;100.00;97582.76;1703229;81;28033;-88
2022/08/19 04:54:25;;;;;;;5.90;5.17;;;;;;;22.51;100.00;97591.90;1691044;81;28035;-88
2022/08/19 04:56:53;;;;;;;7.78;5.78;;;;;;;22.57;100.00;97593.44;1711971;81;28066;-84
2022/08/19 04:59:20;;;;;;;8.28;5.87;;;;;;;22.65;100.00;97594.56;1677056;83;28182;-86
2022/08/19 05:01:50;;;;;;;7.03;5.15;;;;;;;22.71;100.00;97593.75;1670209;83;28037;-86
2022/08/19 05:04:21;;;;;;;6.33;5.72;;;;;;;22.79;100.00;97595.75;1652820;84;28160;-85
2022/08/19 05:06:48;;;;;;;5.90;5.22;;;;;;;22.89;100.00;97602.02;1706555;81;28079;-87
2022/08/19 05:09:15;;;;;;;;;;;;;;;22.91;100.00;97602.09;1703210;81;28085;-87
2022/08/19 05:11:52;;;;;;;;;;;;;;;22.91;100.00;97598.64;1711522;81;24516;-87
2022/08/19 05:14:21;;;;;;;;;;;;;;;22.98;100.00;97591.94;1717610;81;20379;-84
2022/08/19 05:16:46;;;;;;;7.90;5.00;;;;;;;23.04;100.00;97590.61;1694588;82;25285;-85
2022/08/19 05:24:42;;;;;;;10.95;5.62;;;;;;;23.28;100.00;97596.66;1695490;82;28048;-86
2022/08/19 05:27:08;;;;;;;9.60;4.95;;;;;;;23.42;100.00;97599.28;1702975;82;28108;-85
2022/08/19 05:29:34;;;;;;;7.30;5.12;;;;;;;23.52;100.00;97605.87;1687119;81;28049;-86
2022/08/19 05:32:04;;;;;;;5.65;5.05;;;;;;;23.58;100.00;97603.70;1696812;81;28138;-88
2022/08/19 05:34:32;;;;;;;6.35;5.08;;;;;;;23.61;100.00;97605.14;1692183;82;28179;-87
2022/08/19 05:37:01;;;;;;;7.50;5.80;;;;;;;23.69;100.00;97607.57;1687161;82;28237;-87
2022/08/19 05:39:30;;;;;;;7.55;5.05;;;;;;;23.75;100.00;97601.39;1691823;81;28029;-85
2022/08/19 05:41:59;;;;;;;5.75;4.97;;;;;;;23.83;100.00;97599.84;1700211;81;28074;-88
2022/08/19 05:44:31;;;;;;;7.22;5.55;;;;;;;23.93;100.00;97600.72;1696665;82;28081;-86
2022/08/19 05:46:56;;;;;;;6.92;5.33;;;;;;;23.96;100.00;97605.11;1691454;83;28105;-86
2022/08/19 05:49:22;;;;;;;7.37;5.15;;;;;;;23.97;100.00;97607.27;1712701;82;28112;-87
2022/08/19 05:51:49;;;;;;;6.58;5.40;;;;;;;24.01;100.00;97611.16;1651585;84;28121;-85
2022/08/19 05:54:16;;;;;;;10.78;5.25;;;;;;;24.12;100.00;97608.64;1669626;84;28172;-85
2022/08/19 05:56:47;;;;;;;7.15;5.75;;;;;;;24.15;100.00;97605.55;1668843;84;28091;-85
2022/08/19 05:59:19;;;;;;;6.53;5.10;;;;;;;24.16;100.00;97615.73;1660815;83;28233;-87
2022/08/19 06:01:46;;;;;;;6.50;5.58;;;;;;;24.18;100.00;97621.70;1678800;83;28018;-84
2022/08/19 06:04:13;;;;;;;8.18;5.22;;;;;;;24.22;100.00;97618.90;1662013;83;28105;-86
2022/08/19 06:06:40;;;;;;;9.08;5.40;;;;;;;24.26;100.00;97621.47;1638255;85;28100;-86
2022/08/19 06:09:07;;;;;;;8.33;5.22;;;;;;;24.32;100.00;97617.95;1661844;84;28367;-88
2022/08/19 06:11:41;;;;;;;7.03;5.22;;;;;;;24.39;100.00;97622.72;1654122;84;28291;-86
2022/08/19 06:14:17;;;;;;;6.67;4.97;;;;;;;24.45;100.00;97627.73;1669064;83;28228;-88
2022/08/19 06:16:48;;;;;;;6.75;5.78;;;;;;;24.51;100.00;97629.55;1660361;83;28105;-85
2022/08/19 06:19:17;;;;;;;7.58;5.53;;;;;;;24.59;100.00;97626.12;1657453;84;28083;-86
2022/08/19 06:21:46;;;;;;;9.65;6.55;;;;;;;24.68;100.00;97634.70;1664292;84;28160;-88
2022/08/19 06:24:17;;;;;;;6.87;6.05;;;;;;;24.76;100.00;97636.31;1644239;85;40715;-88
2022/08/19 06:26:46;;;;;;;5.78;5.15;;;;;;;24.81;100.00;97631.95;1629978;86;28154;-87
2022/08/19 06:29:14;;;;;;;7.78;6.15;;;;;;;24.90;100.00;97640.55;1633157;85;28020;-87
2022/08/19 06:31:43;;;;;;;8.03;5.47;;;;;;;25.00;100.00;97642.22;1665942;84;28098;-86
2022/08/19 06:34:10;;;;;;;6.95;5.22;;;;;;;25.11;100.00;97648.73;1669854;84;28146;-85
2022/08/19 06:36:40;;;;;;;9.93;5.58;;;;;;;25.21;100.00;97652.55;1667213;83;28137;-86
2022/08/19 06:39:09;;;;;;;6.58;4.83;;;;;;;25.27;100.00;97654.36;1651091;83;28028;-85
2022/08/19 06:41:38;;;;;;;7.90;5.05;;;;;;;25.33;100.00;97648.64;1697504;82;28101;-88
2022/08/19 06:44:05;;;;;;;7.62;5.00;;;;;;;25.40;100.00;97654.77;1705647;81;28031;-89
2022/08/19 06:46:32;;;;;;;6.22;5.17;;;;;;;25.48;100.00;97654.47;1696561;81;28097;-85
2022/08/19 06:48:58;;;;;;;6.62;5.00;;;;;;;25.54;100.00;97658.13;1702067;81;28073;-86
2022/08/19 06:51:25;;;;;;;9.03;5.65;;;;;;;25.62;100.00;97664.59;1700873;81;28026;-86
2022/08/19 06:53:53;;;;;;;7.17;4.85;;;;;;;25.66;100.00;97668.46;1713747;81;28239;-85
2022/08/19 06:56:24;;;;;;;5.85;5.22;;;;;;;25.73;100.00;97674.59;1695468;82;28121;-86
2022/08/19 06:58:52;;;;;;;10.90;5.60;;;;;;;25.86;100.00;97682.47;1688885;81;28179;-85
2022/08/19 07:01:20;;;;;;;7.28;4.70;;;;;;;25.95;100.00;97691.89;1710814;81;28100;-87
2022/08/19 07:03:46;;;;;;;6.10;5.22;;;;;;;26.05;100.00;97691.36;1701768;82;28077;-89
2022/08/19 07:06:17;;;;;;;6.50;5.35;;;;;;;26.06;100.00;97694.34;1704525;81;28079;-86
2022/08/19 07:08:46;;;;;;;10.55;5.40;;;;;;;26.09;100.00;97686.66;1706926;82;28176;-86
2022/08/19 07:11:17;;;;;;;7.87;5.50;;;;;;;26.13;100.00;97690.53;1698098;81;28109;-88
2022/08/19 07:13:45;;;;;;;8.03;4.97;;;;;;;26.18;100.00;97696.59;1709240;82;28121;-88
2022/08/19 07:16:14;;;;;;;7.65;5.45;;;;;;;26.26;100.00;97692.28;1697099;81;28105;-86
2022/08/19 07:18:41;;;;;;;5.87;5.10;;;;;;;26.35;100.00;97694.94;1706582;81;28050;-85
2022/08/19 07:21:11;;;;;;;9.88;4.72;;;;;;;26.48;100.00;97704.19;1667662;82;28178;-86
2022/08/19 07:23:39;;;;;;;7.05;5.55;;;;;;;26.62;100.00;97702.95;1699690;81;28040;-86
2022/08/19 07:26:11;;;;;;;6.55;5.10;;;;;;;26.76;100.00;97706.29;1686768;82;28176;-86
2022/08/19 07:28:42;;;;;;;8.58;5.15;;;;;;;26.91;100.00;97704.56;1688861;81;28173;-86
2022/08/19 07:31:17;;;;;;;6.83;5.47;;;;;;;27.00;100.00;97709.92;1691845;82;28132;-88
2022/08/19 07:33:45;;;;;;;5.90;5.30;;;;;;;27.15;100.00;97712.17;1695478;81;28088;-89
2022/08/19 07:36:16;;;;;;;8.60;5.35;;;;;;;27.28;100.00;97709.26;1672601;82;28076;-88
2022/08/19 07:38:47;;;;;;;8.25;5.87;;;;;;;27.42;100.00;97710.70;1708795;81;28027;-86
2022/08/19 07:41:16;;;;;;;8.73;5.30;;;;;;;27.52;100.00;97710.16;1687765;81;28132;-85
2022/08/19 07:43:44;;;;;;;10.32;5.40;;;;;;;27.64;100.00;97706.44;1692071;81;28234;-86
2022/08/19 07:46:11;;;;;;;6.25;5.20;;;;;;;27.76;100.00;97711.29;1706861;82;28215;-88
2022/08/19 07:48:37;;;;;;;9.63;5.33;;;;;;;27.86;100.00;97719.59;1693186;82;28115;-88
2022/08/19 07:51:08;;;;;;;6.42;5.20;;;;;;;28.00;100.00;97720.15;1705373;82;28109;-86
2022/08/19 07:53:36;;;;;;;5.55;4.83;;;;;;;28.13;100.00;97719.94;1701339;81;28090;-85
2022/08/19 07:56:03;;;;;;;7.30;4.90;;;;;;;28.23;100.00;97721.50;1701918;81;28083;-86
2022/08/19 07:58:33;;;;;;;9.13;5.42;;;;;;;28.29;100.00;97717.87;1699042;82;28084;-88
2022/08/19 08:01:01;;;;;;;7.37;5.40;;;;;;;28.32;100.00;97719.77;1698032;82;28050;-88
2022/08/19 08:09:11;;;;;;;8.08;5.25;;;;;;;28.45;100.00;97718.17;1700359;81;28129;-86
2022/08/19 08:11:41;;;;;;;7.60;5.08;;;;;;;28.48;100.00;97720.38;1704929;81;28132;-85
2022/08/19 08:14:09;;;;;;;5.40;4.90;;;;;;;28.49;100.00;97719.33;1690032;82;28060;-86
2022/08/19 08:16:38;;;;;;;6.47;4.85;;;;;;;28.50;100.00;97713.70;1714282;81;28087;-89
2022/08/19 08:19:06;;;;;;;5.78;5.08;;;;;;;28.48;100.00;97713.64;1696841;82;28126;-87
2022/08/19 08:21:34;;;;;;;7.47;5.12;;;;;;;28.48;100.00;97711.77;1723872;81;28186;-89
2022/08/19 08:24:01;;;;;;;7.15;5.35;;;;;;;28.49;100.00;97713.94;1658977;84;28179;-86
2022/08/19 08:26:27;;;;;;;6.05;5.45;;;;;;;28.49;100.00;97717.45;1656804;85;28110;-85
2022/08/19 08:28:53;;;;;;;7.12;5.30;;;;;;;28.48;100.00;97719.03;1647027;85;28254;-86
2022/08/19 08:31:20;;;;;;;7.78;5.53;;;;;;;28.51;100.00;97714.53;1641986;85;28145;-86
2022/08/19 08:33:47;;;;;;;7.15;5.28;;;;;;;28.54;100.00;97720.77;1669138;83;28106;-86
2022/08/19 08:36:15;;;;;;;7.85;5.00;;;;;;;28.52;100.00;97714.30;1673612;83;28083;-85
2022/08/19 08:38:45;;;;;;;7.53;4.90;;;;;;;28.44;100.00;97711.15;1638062;84;28498;-89
2022/08/19 08:41:27;;;;;;;9.00;5.58;;;;;;;28.42;100.00;97709.24;1636413;84;28116;-89
2022/08/19 08:44:00;;;;;;;7.35;5.03;;;;;;;28.39;100.00;97712.39;1558837;88;28111;-86
2022/08/19 08:46:39;;;;;;;5.60;4.75;;;;;;;28.34;100.00;97716.33;1661380;83;28249;-87
2022/08/19 08:49:15;;;;;;;5.42;4.92;;;;;;;28.33;100.00;97712.81;1677357;81;28218;-86
2022/08/19 08:51:48;;;;;;;5.58;5.00;;;;;;;28.35;99.87;97709.89;1714640;81;28027;-86
2022/08/19 08:54:31;;;;;;;5.20;4.70;;;;;;;28.33;99.37;97710.12;1705877;81;28132;-86
2022/08/19 08:56:49;;;;;;;5.00;4.50;;;;;;;28.34;99.01;97710.42;1692126;81;28103;-89
2022/08/19 08:59:30;;;;;;;6.47;5.20;;;;;;;28.32;99.06;97703.62;1653702;84;28085;-86
2022/08/19 09:01:56;;;;;;;;;;;;;;;28.30;98.82;97705.23;1696666;82;28064;-88
2022/08/19 09:04:25;;;;;;;7.67;4.80;;;;;;;28.23;98.78;97705.36;1701834;81;20280;-88
2022/08/19 09:07:16;;;;;;;7.78;4.67;;;;;;;28.19;98.55;97702.86;1715558;81;28112;-89
2022/08/19 09:09:49;;;;;;;6.47;5.27;;;;;;;28.21;98.38;97705.28;1657338;84;28295;-86
2022/08/19 09:12:40;;;;;;;6.37;5.10;;;;;;;28.25;98.29;97702.44;1691978;81;28132;-86
2022/08/19 09:15:09;;;;;;;5.70;4.92;;;;;;;28.24;98.11;97703.48;1677108;82;28216;-87
2022/08/19 09:17:38;;;;;;;5.75;4.92;;;;;;;28.31;98.14;97702.84;1709629;81;28121;-88
2022/08/19 09:20:10;;;;;;;6.05;5.03;;;;;;;28.36;97.74;97709.66;1706697;82;28127;-88
2022/08/19 09:22:38;;;;;;;6.15;5.28;;;;;;;28.46;97.79;97704.48;1679217;82;28207;-86
2022/08/19 09:25:10;;;;;;;8.30;5.50;;;;;;;28.58;97.64;97707.14;1704234;81;28143;-86
2022/08/19 09:27:39;;;;;;;7.03;4.97;;;;;;;28.68;97.19;97709.50;1684455;82;28100;-89
2022/08/19 09:30:07;;;;;;;9.38;5.67;;;;;;;28.80;96.85;97710.02;1699458;81;28085;-88
2022/08/19 09:32:33;;;;;;;5.90;5.28;;;;;;;28.85;96.41;97710.11;1704255;82;28111;-86
2022/08/19 09:35:00;;;;;;;11.25;5.50;;;;;;;28.89;96.38;97708.03;1688845;81;28183;-85
2022/08/19 09:37:26;;;;;;;8.20;5.22;;;;;;;28.99;96.28;97715.48;1705396;81;28180;-85
2022/08/19 09:39:53;;;;;;;6.20;5.20;;;;;;;29.12;96.30;97708.45;1699846;81;28137;-88
2022/08/19 09:42:20;;;;;;;6.62;5.25;;;;;;;29.27;95.85;97704.66;1687479;82;28099;-86
2022/08/19 09:44:46;;;;;;;10.70;5.70;;;;;;;29.37;95.36;97696.77;1709251;81;28003;-88
2022/08/19 09:47:13;;;;;;;7.30;4.83;;;;;;;29.39;94.62;97701.92;1712243;81;28107;-85
2022/08/19 09:49:40;;;;;;;9.68;6.12;;;;;;;29.43;93.94;97697.14;1711435;81;28147;-88
2022/08/19 09:52:08;;;;;;;7.97;5.25;;;;;;;29.47;93.04;97694.76;1700232;82;28088;-88
2022/08/19 09:54:40;;;;;;;9.93;4.90;;;;;;;29.49;92.03;97694.81;1684903;82;28113;-86
2022/08/19 09:57:06;;;;;;;9.45;5.33;;;;;;;29.54;91.26;97695.42;1703950;81;28020;-86
2022/08/19 09:59:33;;;;;;;7.42;5.08;;;;;;;29.59;90.35;97691.45;1701615;82;28178;-86
2022/08/19 10:02:00;;;;;;;6.72;4.62;;;;;;;29.66;89.94;97689.94;1695737;81;28197;-85
2022/08/19 10:05:47;;;;;;;8.00;4.87;;;;;;;29.69;89.29;97693.47;1709540;81;28055;-85
2022/08/19 10:06:56;;;;;;;7.10;4.87;;;;;;;29.74;88.22;97686.80;1685799;81;28100;-86
2022/08/19 10:09:23;;;;;;;5.67;5.00;;;;;;;29.79;87.76;97693.63;1704318;81;28080;-86
2022/08/19 10:11:49;;;;;;;7.05;4.42;;;;;;;29.90;87.19;97684.11;1697297;81;28002;-86
2022/08/19 10:14:16;;;;;;;5.22;4.62;;;;;;;30.03;86.68;97686.17;1695266;81;28106;-86
2022/08/19 10:16:43;;;;;;;6.83;4.80;;;;;;;30.12;86.56;97681.44;1698645;81;28125;-85
2022/08/19 10:19:09;;;;;;;6.33;5.45;;;;;;;30.23;86.19;97680.50;1717767;81;28160;-86
2022/08/19 10:21:36;;;;;;;7.60;5.50;;;;;;;30.35;86.03;97677.14;1712807;82;28058;-85
2022/08/19 10:24:05;;;;;;;6.72;5.10;;;;;;;30.46;85.49;97675.38;1700546;82;28142;-86
2022/08/19 10:26:37;;;;;;;7.25;5.40;;;;;;;30.57;85.02;97670.94;1700499;82;28091;-86
2022/08/19 10:29:06;;;;;;;6.95;5.83;;;;;;;30.62;84.46;97656.95;1689639;81;28280;-85
2022/08/19 10:31:33;;;;;;;7.25;5.12;;;;;;;30.71;84.34;97666.22;1690262;82;28248;-88
2022/08/19 10:34:01;;;;;;;8.35;4.70;;;;;;;30.84;84.03;97668.25;1691777;82;28242;-86
2022/08/19 10:36:31;;;;;;;6.03;4.80;;;;;;;30.94;83.48;97666.98;1673718;83;28104;-86
2022/08/19 10:39:00;;;;;;;8.45;5.15;;;;;;;30.92;82.54;97668.63;1673970;82;28121;-85
2022/08/19 10:41:30;;;;;;;7.22;4.65;;;;;;;30.95;81.53;97671.33;1702991;81;28035;-86
2022/08/19 10:43:59;;;;;;;6.90;5.00;;;;;;;30.96;81.05;97672.97;1691527;81;28093;-86
2022/08/19 10:46:27;;;;;;;6.00;5.15;;;;;;;30.93;80.09;97674.28;1667924;84;28008;-86
2022/08/19 10:48:55;;;;;;;9.78;5.12;;;;;;;30.98;79.60;97675.70;1659947;83;28192;-85
2022/08/19 10:54:06;;;;;;;7.08;4.67;;;;;;;31.17;79.22;97680.22;1670920;84;28103;-86
2022/08/19 10:59:28;;;;;;;7.87;5.22;;;;;;;31.36;78.15;97681.48;1715378;81;28205;-85
2022/08/19 11:01:58;;;;;;;7.35;4.80;;;;;;;31.42;76.98;97674.22;1664035;84;28097;-87
2022/08/19 11:04:24;;;;;;;7.83;4.65;;;;;;;31.47;76.52;97672.37;1654348;83;28127;-85
2022/08/19 11:06:50;;;;;;;7.30;4.87;;;;;;;31.53;76.44;97670.52;1695284;81;28164;-85
2022/08/19 11:09:20;;;;;;;5.70;4.28;;;;;;;31.56;75.45;97668.63;1662193;84;28079;-86
2022/08/19 11:11:47;;;;;;;9.20;4.90;;;;;;;31.55;74.51;97662.41;1668752;83;28102;-88
2022/08/19 11:14:16;;;;;;;7.20;5.08;;;;;;;31.61;73.59;97666.52;1692813;82;28144;-88
2022/08/19 11:16:42;;;;;;;6.83;4.72;;;;;;;31.64;73.51;97662.75;1671127;83;28160;-88
2022/08/19 11:19:10;;;;;;;6.53;4.78;;;;;;;31.70;73.22;97667.13;1700269;81;28276;-88
2022/08/19 11:21:42;;;;;;;7.05;4.60;;;;;;;31.69;72.17;97656.58;1696759;82;28113;-85
2022/08/19 11:24:12;;;;;;;6.70;4.45;;;;;;;31.71;71.24;97659.28;1711145;81;28147;-88
2022/08/19 11:26:41;;;;;;;9.93;4.72;;;;;;;31.79;70.75;97658.81;1633485;85;28169;-88
2022/08/19 11:29:12;;;;;;;7.53;4.55;;;;;;;31.91;70.19;97658.61;1643900;85;28167;-88
2022/08/19 11:31:41;;;;;;;6.42;4.60;;;;;;;32.07;69.28;97665.73;1654881;84;28109;-88
2022/08/19 11:34:11;;;;;;;7.20;5.12;;;;;;;32.23;69.00;97661.23;1701285;82;28115;-89
2022/08/19 11:36:40;;;;;;;7.03;5.07;;;;;;;32.30;68.96;97655.82;1677052;82;43090;-88
2022/08/19 11:39:08;;;;;;;8.33;5.10;;;;;;;32.43;69.06;97653.16;1695026;81;28010;-88
2022/08/19 11:41:34;;;;;;;8.53;4.50;;;;;;;32.60;69.28;97655.66;1706906;81;28188;-88
2022/08/19 11:44:02;;;;;;;6.80;4.62;;;;;;;32.74;68.78;97648.12;1717188;81;28125;-85
2022/08/19 11:46:29;;;;;;;7.53;4.53;;;;;;;32.87;67.60;97650.86;1679363;82;28194;-84
2022/08/19 11:48:56;;;;;;;9.08;4.90;;;;;;;32.92;66.37;97641.91;1664683;83;28077;-85
2022/08/19 11:51:27;;;;;;;5.90;5.00;;;;;;;32.95;64.87;97648.95;1648471;84;28085;-88
2022/08/19 11:53:54;;;;;;;8.63;4.40;;;;;;;32.96;62.88;97652.48;1665752;83;28067;-88
2022/08/19 11:56:22;;;;;;;6.85;4.28;;;;;;;32.96;62.88;97652.48;1625315;85;28124;-88
2022/08/19 11:58:48;;;;;;;8.18;4.62;;;;;;;32.91;62.46;97645.16;1679665;81;28199;-88